sensor_id;sensor_type;location;lat;lon;timestamp;P1;durP1;ratioP1;P2;durP2;ratioP2
17340;SDS011;8788;49.930;8.660;2022-09-01T04:06:15;1.35;;;1.25;;
17340;SDS011;8788;49.930;8.660;2022-09-01T04:08:45;1.55;;;1.45;;
17340;SDS011;8788;49.930;8.660;2022-09-01T04:11:13;1.75;;;1.42;;
17340;SDS011;8788;49.930;8.660;2022-09-01T04:13:46;1.40;;;1.30;;
17340;SDS011;8788;49.930;8.660;2022-09-01T04:16:18;1.77;;;1.20;;
17340;SDS011;8788;49.930;8.660;2022-09-01T04:19:05;1.38;;;1.20;;
17340;SDS011;8788;49.930;8.660;2022-09-01T04:21:42;1.55;;;1.42;;
17340;SDS011;8788;49.930;8.660;2022-09-01T04:24:11;2.13;;;1.40;;
17340;SDS011;8788;49.930;8.660;2022-09-01T04:26:40;3.90;;;1.38;;
17340;SDS011;8788;49.930;8.660;2022-09-01T04:29:12;2.55;;;1.23;;
17340;SDS011;8788;49.930;8.660;2022-09-01T04:31:39;1.35;;;1.25;;
17340;SDS011;8788;49.930;8.660;2022-09-01T04:34:07;1.58;;;1.48;;
17340;SDS011;8788;49.930;8.660;2022-09-01T04:36:37;1.50;;;1.40;;
17340;SDS011;8788;49.930;8.660;2022-09-01T04:39:07;2.78;;;1.20;;
17340;SDS011;8788;49.930;8.660;2022-09-01T04:41:38;1.88;;;1.60;;
17340;SDS011;8788;49.930;8.660;2022-09-01T04:44:07;1.48;;;1.38;;
17340;SDS011;8788;49.930;8.660;2022-09-01T04:46:38;1.48;;;1.38;;
17340;SDS011;8788;49.930;8.660;2022-09-01T04:49:11;3.95;;;1.65;;
17340;SDS011;8788;49.930;8.660;2022-09-01T04:51:44;1.67;;;1.58;;
17340;SDS011;8788;49.930;8.660;2022-09-01T04:54:15;2.08;;;1.38;;
17340;SDS011;8788;49.930;8.660;2022-09-01T04:56:45;1.50;;;1.20;;
17340;SDS011;8788;49.930;8.660;2022-09-01T04:59:15;1.50;;;1.40;;
17340;SDS011;8788;49.930;8.660;2022-09-01T05:01:48;1.50;;;1.40;;
17340;SDS011;8788;49.930;8.660;2022-09-01T05:04:19;1.63;;;1.50;;
17340;SDS011;8788;49.930;8.660;2022-09-01T05:06:49;1.23;;;1.13;;
17340;SDS011;8788;49.930;8.660;2022-09-01T05:09:22;2.10;;;1.55;;
17340;SDS011;8788;49.930;8.660;2022-09-01T05:11:53;2.55;;;1.30;;
17340;SDS011;8788;49.930;8.660;2022-09-01T05:14:27;1.20;;;1.10;;
17340;SDS011;8788;49.930;8.660;2022-09-01T05:16:55;1.83;;;1.25;;
17340;SDS011;8788;49.930;8.660;2022-09-01T05:19:25;1.83;;;1.60;;
17340;SDS011;8788;49.930;8.660;2022-09-01T05:21:57;2.35;;;1.60;;
17340;SDS011;8788;49.930;8.660;2022-09-01T05:24:27;1.48;;;1.38;;
17340;SDS011;8788;49.930;8.660;2022-09-01T05:26:57;1.73;;;1.27;;
17340;SDS011;8788;49.930;8.660;2022-09-01T05:29:26;2.72;;;1.08;;
17340;SDS011;8788;49.930;8.660;2022-09-01T05:31:54;1.15;;;1.00;;
17340;SDS011;8788;49.930;8.660;2022-09-01T05:34:24;1.40;;;1.30;;
17340;SDS011;8788;49.930;8.660;2022-09-01T05:36:55;1.40;;;1.30;;
17340;SDS011;8788;49.930;8.660;2022-09-01T05:39:26;1.23;;;1.20;;
17340;SDS011;8788;49.930;8.660;2022-09-01T05:41:54;1.15;;;1.15;;
17340;SDS011;8788;49.930;8.660;2022-09-01T05:44:21;3.05;;;1.27;;
17340;SDS011;8788;49.930;8.660;2022-09-01T05:46:50;2.00;;;1.45;;
17340;SDS011;8788;49.930;8.660;2022-09-01T05:49:20;1.45;;;1.20;;
17340;SDS011;8788;49.930;8.660;2022-09-01T05:51:49;1.40;;;1.30;;
17340;SDS011;8788;49.930;8.660;2022-09-01T05:54:20;1.20;;;1.10;;
17340;SDS011;8788;49.930;8.660;2022-09-01T05:56:57;3.40;;;1.10;;
17340;SDS011;8788;49.930;8.660;2022-09-01T05:59:25;1.48;;;1.35;;
17340;SDS011;8788;49.930;8.660;2022-09-01T06:02:18;2.25;;;1.30;;
17340;SDS011;8788;49.930;8.660;2022-09-01T06:04:46;1.35;;;1.25;;
17340;SDS011;8788;49.930;8.660;2022-09-01T06:07:21;1.38;;;1.20;;
17340;SDS011;8788;49.930;8.660;2022-09-01T06:09:53;1.20;;;1.10;;
17340;SDS011;8788;49.930;8.660;2022-09-01T06:12:23;1.33;;;1.23;;
17340;SDS011;8788;49.930;8.660;2022-09-01T06:14:52;1.83;;;1.30;;
17340;SDS011;8788;49.930;8.660;2022-09-01T06:17:22;1.45;;;1.30;;
17340;SDS011;8788;49.930;8.660;2022-09-01T06:19:51;1.98;;;1.40;;
17340;SDS011;8788;49.930;8.660;2022-09-01T06:22:20;1.05;;;1.00;;
17340;SDS011;8788;49.930;8.660;2022-09-01T06:24:48;1.25;;;1.08;;
17340;SDS011;8788;49.930;8.660;2022-09-01T06:27:16;1.55;;;1.25;;
17340;SDS011;8788;49.930;8.660;2022-09-01T06:29:46;1.85;;;1.25;;
17340;SDS011;8788;49.930;8.660;2022-09-01T06:32:16;2.67;;;1.35;;
17340;SDS011;8788;49.930;8.660;2022-09-01T06:34:43;0.90;;;0.90;;
17340;SDS011;8788;49.930;8.660;2022-09-01T06:37:15;1.00;;;1.00;;
17340;SDS011;8788;49.930;8.660;2022-09-01T06:39:47;1.58;;;1.35;;
17340;SDS011;8788;49.930;8.660;2022-09-01T06:42:15;2.53;;;1.45;;
17340;SDS011;8788;49.930;8.660;2022-09-01T06:44:54;1.25;;;1.15;;
17340;SDS011;8788;49.930;8.660;2022-09-01T06:47:21;1.05;;;1.05;;
17340;SDS011;8788;49.930;8.660;2022-09-01T06:49:49;1.38;;;1.27;;
17340;SDS011;8788;49.930;8.660;2022-09-01T06:52:19;2.55;;;1.13;;
17340;SDS011;8788;49.930;8.660;2022-09-01T06:54:48;1.25;;;1.00;;
17340;SDS011;8788;49.930;8.660;2022-09-01T06:57:18;1.50;;;0.95;;
17340;SDS011;8788;49.930;8.660;2022-09-01T06:59:46;1.45;;;1.25;;
17340;SDS011;8788;49.930;8.660;2022-09-01T07:02:16;1.08;;;0.98;;
17340;SDS011;8788;49.930;8.660;2022-09-01T07:05:19;1.42;;;1.33;;
17340;SDS011;8788;49.930;8.660;2022-09-01T07:07:47;3.17;;;1.23;;
17340;SDS011;8788;49.930;8.660;2022-09-01T07:10:39;1.33;;;1.23;;
17340;SDS011;8788;49.930;8.660;2022-09-01T07:13:15;1.45;;;1.35;;
17340;SDS011;8788;49.930;8.660;2022-09-01T07:15:46;2.65;;;0.90;;
17340;SDS011;8788;49.930;8.660;2022-09-01T07:18:16;1.30;;;1.20;;
17340;SDS011;8788;49.930;8.660;2022-09-01T07:20:46;4.72;;;1.15;;
17340;SDS011;8788;49.930;8.660;2022-09-01T07:23:15;1.42;;;1.33;;
17340;SDS011;8788;49.930;8.660;2022-09-01T07:25:45;1.77;;;1.30;;
17340;SDS011;8788;49.930;8.660;2022-09-01T07:28:22;1.27;;;1.13;;
17340;SDS011;8788;49.930;8.660;2022-09-01T07:30:54;1.63;;;1.40;;
17340;SDS011;8788;49.930;8.660;2022-09-01T07:33:23;1.40;;;1.30;;
17340;SDS011;8788;49.930;8.660;2022-09-01T07:35:55;1.20;;;1.10;;
17340;SDS011;8788;49.930;8.660;2022-09-01T07:38:24;1.55;;;1.10;;
17340;SDS011;8788;49.930;8.660;2022-09-01T07:40:53;2.65;;;1.30;;
17340;SDS011;8788;49.930;8.660;2022-09-01T07:43:38;1.40;;;1.30;;
17340;SDS011;8788;49.930;8.660;2022-09-01T07:46:21;2.05;;;1.75;;
17340;SDS011;8788;49.930;8.660;2022-09-01T07:48:53;1.50;;;1.40;;
17340;SDS011;8788;49.930;8.660;2022-09-01T07:51:22;1.83;;;1.20;;
17340;SDS011;8788;49.930;8.660;2022-09-01T07:53:51;3.00;;;1.20;;
17340;SDS011;8788;49.930;8.660;2022-09-01T07:56:21;2.45;;;1.40;;
17340;SDS011;8788;49.930;8.660;2022-09-01T07:58:51;1.67;;;1.30;;
17340;SDS011;8788;49.930;8.660;2022-09-01T08:01:21;1.65;;;1.55;;
17340;SDS011;8788;49.930;8.660;2022-09-01T08:03:50;1.60;;;1.50;;
17340;SDS011;8788;49.930;8.660;2022-09-01T08:06:21;1.83;;;1.60;;
17340;SDS011;8788;49.930;8.660;2022-09-01T08:08:51;1.60;;;1.50;;
17340;SDS011;8788;49.930;8.660;2022-09-01T08:11:20;3.38;;;1.40;;
17340;SDS011;8788;49.930;8.660;2022-09-01T08:13:51;2.72;;;1.90;;
17340;SDS011;8788;49.930;8.660;2022-09-01T08:16:18;2.45;;;1.60;;
17340;SDS011;8788;49.930;8.660;2022-09-01T08:18:48;1.92;;;1.55;;
17340;SDS011;8788;49.930;8.660;2022-09-01T08:21:39;2.83;;;1.30;;
17340;SDS011;8788;49.930;8.660;2022-09-01T08:24:32;2.47;;;1.63;;
17340;SDS011;8788;49.930;8.660;2022-09-01T08:27:00;1.95;;;1.38;;
17340;SDS011;8788;49.930;8.660;2022-09-01T08:29:27;2.35;;;1.35;;
17340;SDS011;8788;49.930;8.660;2022-09-01T08:31:54;1.35;;;1.05;;
17340;SDS011;8788;49.930;8.660;2022-09-01T08:34:23;2.45;;;1.30;;
17340;SDS011;8788;49.930;8.660;2022-09-01T08:36:52;2.50;;;1.40;;
17340;SDS011;8788;49.930;8.660;2022-09-01T08:39:19;1.40;;;1.30;;
17340;SDS011;8788;49.930;8.660;2022-09-01T08:41:50;1.48;;;1.38;;
17340;SDS011;8788;49.930;8.660;2022-09-01T08:44:25;1.10;;;1.10;;
17340;SDS011;8788;49.930;8.660;2022-09-01T08:46:58;2.35;;;1.50;;
17340;SDS011;8788;49.930;8.660;2022-09-01T08:49:29;1.40;;;1.30;;
17340;SDS011;8788;49.930;8.660;2022-09-01T08:52:12;1.90;;;1.40;;
17340;SDS011;8788;49.930;8.660;2022-09-01T08:54:48;2.00;;;1.60;;
17340;SDS011;8788;49.930;8.660;2022-09-01T08:57:18;1.73;;;1.35;;
17340;SDS011;8788;49.930;8.660;2022-09-01T09:00:08;1.42;;;1.20;;
17340;SDS011;8788;49.930;8.660;2022-09-01T09:02:46;1.60;;;1.50;;
17340;SDS011;8788;49.930;8.660;2022-09-01T09:05:29;1.50;;;1.40;;
17340;SDS011;8788;49.930;8.660;2022-09-01T09:08:13;1.33;;;1.10;;
17340;SDS011;8788;49.930;8.660;2022-09-01T09:10:51;1.58;;;1.48;;
17340;SDS011;8788;49.930;8.660;2022-09-01T09:13:24;2.63;;;1.33;;
17340;SDS011;8788;49.930;8.660;2022-09-01T09:16:05;2.92;;;1.50;;
17340;SDS011;8788;49.930;8.660;2022-09-01T09:18:37;3.35;;;1.50;;
17340;SDS011;8788;49.930;8.660;2022-09-01T09:21:11;1.63;;;1.40;;
17340;SDS011;8788;49.930;8.660;2022-09-01T09:23:45;1.55;;;1.33;;
17340;SDS011;8788;49.930;8.660;2022-09-01T09:26:19;1.40;;;1.10;;
17340;SDS011;8788;49.930;8.660;2022-09-01T09:28:46;1.20;;;1.10;;
17340;SDS011;8788;49.930;8.660;2022-09-01T09:31:27;1.50;;;1.35;;
17340;SDS011;8788;49.930;8.660;2022-09-01T09:34:29;1.30;;;1.20;;
17340;SDS011;8788;49.930;8.660;2022-09-01T09:40:23;1.63;;;1.52;;
17340;SDS011;8788;49.930;8.660;2022-09-01T09:42:58;1.40;;;1.30;;
17340;SDS011;8788;49.930;8.660;2022-09-01T09:45:29;1.58;;;1.30;;
17340;SDS011;8788;49.930;8.660;2022-09-01T09:47:59;1.40;;;1.30;;
17340;SDS011;8788;49.930;8.660;2022-09-01T09:50:30;2.58;;;1.40;;
17340;SDS011;8788;49.930;8.660;2022-09-01T09:55:54;1.15;;;1.13;;
17340;SDS011;8788;49.930;8.660;2022-09-01T09:58:25;3.70;;;1.85;;
17340;SDS011;8788;49.930;8.660;2022-09-01T10:01:00;1.67;;;1.50;;
17340;SDS011;8788;49.930;8.660;2022-09-01T10:03:33;2.42;;;1.52;;
17340;SDS011;8788;49.930;8.660;2022-09-01T10:06:07;2.13;;;1.40;;
17340;SDS011;8788;49.930;8.660;2022-09-01T10:08:38;1.95;;;1.10;;
17340;SDS011;8788;49.930;8.660;2022-09-01T10:11:25;1.30;;;1.20;;
17340;SDS011;8788;49.930;8.660;2022-09-01T10:13:55;1.25;;;1.00;;
17340;SDS011;8788;49.930;8.660;2022-09-01T10:16:24;1.35;;;1.25;;
17340;SDS011;8788;49.930;8.660;2022-09-01T10:18:56;2.15;;;1.20;;
17340;SDS011;8788;49.930;8.660;2022-09-01T10:21:27;4.32;;;1.30;;
17340;SDS011;8788;49.930;8.660;2022-09-01T10:24:01;1.25;;;1.17;;
17340;SDS011;8788;49.930;8.660;2022-09-01T10:26:34;1.80;;;1.40;;
17340;SDS011;8788;49.930;8.660;2022-09-01T10:29:05;1.40;;;1.30;;
17340;SDS011;8788;49.930;8.660;2022-09-01T10:31:38;2.88;;;1.63;;
17340;SDS011;8788;49.930;8.660;2022-09-01T10:34:06;1.33;;;1.08;;
17340;SDS011;8788;49.930;8.660;2022-09-01T10:36:40;1.73;;;1.25;;
17340;SDS011;8788;49.930;8.660;2022-09-01T10:39:10;1.55;;;1.20;;
17340;SDS011;8788;49.930;8.660;2022-09-01T10:41:47;2.08;;;1.27;;
17340;SDS011;8788;49.930;8.660;2022-09-01T10:44:23;2.22;;;1.58;;
17340;SDS011;8788;49.930;8.660;2022-09-01T10:46:55;1.63;;;1.35;;
17340;SDS011;8788;49.930;8.660;2022-09-01T10:55:40;1.52;;;1.42;;
17340;SDS011;8788;49.930;8.660;2022-09-01T11:05:08;2.50;;;1.10;;
17340;SDS011;8788;49.930;8.660;2022-09-01T11:07:29;1.10;;;1.00;;
17340;SDS011;8788;49.930;8.660;2022-09-01T11:10:11;1.25;;;0.80;;
17340;SDS011;8788;49.930;8.660;2022-09-01T11:13:02;4.18;;;1.27;;
17340;SDS011;8788;49.930;8.660;2022-09-01T11:15:47;1.35;;;1.25;;
17340;SDS011;8788;49.930;8.660;2022-09-01T11:18:15;1.20;;;1.10;;
17340;SDS011;8788;49.930;8.660;2022-09-01T11:20:51;2.08;;;1.30;;
17340;SDS011;8788;49.930;8.660;2022-09-01T11:23:20;1.85;;;1.75;;
17340;SDS011;8788;49.930;8.660;2022-09-01T11:25:50;1.15;;;1.15;;
17340;SDS011;8788;49.930;8.660;2022-09-01T11:31:20;1.40;;;1.30;;
17340;SDS011;8788;49.930;8.660;2022-09-01T11:33:52;1.45;;;1.33;;
17340;SDS011;8788;49.930;8.660;2022-09-01T11:36:44;1.00;;;0.90;;
17340;SDS011;8788;49.930;8.660;2022-09-01T11:39:32;2.83;;;1.33;;
17340;SDS011;8788;49.930;8.660;2022-09-01T11:42:03;1.83;;;1.20;;
17340;SDS011;8788;49.930;8.660;2022-09-01T11:44:36;1.48;;;1.15;;
17340;SDS011;8788;49.930;8.660;2022-09-01T11:47:12;1.10;;;1.02;;
17340;SDS011;8788;49.930;8.660;2022-09-01T11:50:16;1.67;;;1.00;;
17340;SDS011;8788;49.930;8.660;2022-09-01T11:53:20;0.98;;;0.98;;
17340;SDS011;8788;49.930;8.660;2022-09-01T11:55:51;1.35;;;1.23;;
17340;SDS011;8788;49.930;8.660;2022-09-01T11:58:28;3.03;;;1.38;;
17340;SDS011;8788;49.930;8.660;2022-09-01T12:01:10;0.90;;;0.90;;
17340;SDS011;8788;49.930;8.660;2022-09-01T12:03:39;1.17;;;1.08;;
17340;SDS011;8788;49.930;8.660;2022-09-01T12:06:08;2.35;;;1.42;;
17340;SDS011;8788;49.930;8.660;2022-09-01T12:08:38;1.15;;;1.05;;
17340;SDS011;8788;49.930;8.660;2022-09-01T12:11:09;1.38;;;1.23;;
17340;SDS011;8788;49.930;8.660;2022-09-01T12:13:39;1.48;;;1.20;;
17340;SDS011;8788;49.930;8.660;2022-09-01T12:16:07;1.40;;;1.30;;
17340;SDS011;8788;49.930;8.660;2022-09-01T12:18:36;3.15;;;0.90;;
17340;SDS011;8788;49.930;8.660;2022-09-01T12:21:16;2.55;;;1.40;;
17340;SDS011;8788;49.930;8.660;2022-09-01T12:23:48;2.67;;;1.40;;
17340;SDS011;8788;49.930;8.660;2022-09-01T12:26:22;2.05;;;1.50;;
17340;SDS011;8788;49.930;8.660;2022-09-01T12:28:51;2.42;;;1.30;;
17340;SDS011;8788;49.930;8.660;2022-09-01T12:31:19;1.85;;;1.10;;
17340;SDS011;8788;49.930;8.660;2022-09-01T12:34:24;1.10;;;1.10;;
17340;SDS011;8788;49.930;8.660;2022-09-01T12:37:07;1.23;;;1.13;;
17340;SDS011;8788;49.930;8.660;2022-09-01T12:39:39;1.10;;;1.00;;
17340;SDS011;8788;49.930;8.660;2022-09-01T12:42:10;0.98;;;0.98;;
17340;SDS011;8788;49.930;8.660;2022-09-01T12:44:50;3.30;;;1.42;;
17340;SDS011;8788;49.930;8.660;2022-09-01T12:50:34;1.38;;;1.27;;
17340;SDS011;8788;49.930;8.660;2022-09-01T12:53:12;1.30;;;1.20;;
17340;SDS011;8788;49.930;8.660;2022-09-01T12:55:57;1.17;;;1.15;;
17340;SDS011;8788;49.930;8.660;2022-09-01T12:58:27;1.30;;;1.20;;
17340;SDS011;8788;49.930;8.660;2022-09-01T13:01:00;2.17;;;1.27;;
17340;SDS011;8788;49.930;8.660;2022-09-01T13:03:30;1.10;;;1.00;;
17340;SDS011;8788;49.930;8.660;2022-09-01T13:05:58;1.63;;;1.52;;
17340;SDS011;8788;49.930;8.660;2022-09-01T13:08:28;1.02;;;1.02;;
17340;SDS011;8788;49.930;8.660;2022-09-01T13:11:01;1.95;;;1.20;;
17340;SDS011;8788;49.930;8.660;2022-09-01T13:13:30;1.13;;;1.10;;
17340;SDS011;8788;49.930;8.660;2022-09-01T13:16:02;1.25;;;1.10;;
17340;SDS011;8788;49.930;8.660;2022-09-01T13:18:36;1.92;;;1.10;;
17340;SDS011;8788;49.930;8.660;2022-09-01T13:21:07;1.95;;;1.17;;
17340;SDS011;8788;49.930;8.660;2022-09-01T13:23:35;1.35;;;1.20;;
17340;SDS011;8788;49.930;8.660;2022-09-01T13:26:04;1.20;;;1.15;;
17340;SDS011;8788;49.930;8.660;2022-09-01T13:28:31;1.48;;;1.20;;
17340;SDS011;8788;49.930;8.660;2022-09-01T13:30:59;1.98;;;0.98;;
17340;SDS011;8788;49.930;8.660;2022-09-01T13:33:29;1.08;;;1.05;;
17340;SDS011;8788;49.930;8.660;2022-09-01T13:35:58;1.75;;;1.30;;
17340;SDS011;8788;49.930;8.660;2022-09-01T13:38:25;1.00;;;1.00;;
17340;SDS011;8788;49.930;8.660;2022-09-01T13:40:53;1.60;;;1.30;;
17340;SDS011;8788;49.930;8.660;2022-09-01T13:43:22;1.40;;;1.30;;
17340;SDS011;8788;49.930;8.660;2022-09-01T13:45:51;1.73;;;1.27;;
17340;SDS011;8788;49.930;8.660;2022-09-01T13:48:19;1.52;;;1.20;;
17340;SDS011;8788;49.930;8.660;2022-09-01T13:50:49;1.17;;;1.17;;
17340;SDS011;8788;49.930;8.660;2022-09-01T13:53:17;1.60;;;1.27;;
17340;SDS011;8788;49.930;8.660;2022-09-01T13:55:45;0.90;;;0.90;;
17340;SDS011;8788;49.930;8.660;2022-09-01T13:58:13;1.20;;;1.10;;
17340;SDS011;8788;49.930;8.660;2022-09-01T14:00:43;1.08;;;1.08;;
17340;SDS011;8788;49.930;8.660;2022-09-01T14:03:12;1.50;;;1.40;;
17340;SDS011;8788;49.930;8.660;2022-09-01T14:05:44;2.75;;;1.20;;
17340;SDS011;8788;49.930;8.660;2022-09-01T14:08:13;1.20;;;1.08;;
17340;SDS011;8788;49.930;8.660;2022-09-01T14:10:42;1.42;;;1.30;;
17340;SDS011;8788;49.930;8.660;2022-09-01T14:13:10;2.28;;;1.10;;
17340;SDS011;8788;49.930;8.660;2022-09-01T14:15:38;1.00;;;1.00;;
17340;SDS011;8788;49.930;8.660;2022-09-01T14:18:07;2.33;;;1.15;;
17340;SDS011;8788;49.930;8.660;2022-09-01T14:20:35;1.73;;;1.63;;
17340;SDS011;8788;49.930;8.660;2022-09-01T14:23:07;1.30;;;1.20;;
17340;SDS011;8788;49.930;8.660;2022-09-01T14:25:36;0.95;;;0.95;;
17340;SDS011;8788;49.930;8.660;2022-09-01T14:28:06;1.10;;;1.10;;
17340;SDS011;8788;49.930;8.660;2022-09-01T14:30:34;1.45;;;1.20;;
17340;SDS011;8788;49.930;8.660;2022-09-01T14:33:01;1.08;;;1.02;;
17340;SDS011;8788;49.930;8.660;2022-09-01T14:35:30;2.60;;;1.30;;
17340;SDS011;8788;49.930;8.660;2022-09-01T14:37:58;1.92;;;1.30;;
17340;SDS011;8788;49.930;8.660;2022-09-01T14:40:27;1.15;;;1.15;;
17340;SDS011;8788;49.930;8.660;2022-09-01T14:42:54;1.40;;;1.20;;
17340;SDS011;8788;49.930;8.660;2022-09-01T14:45:22;1.42;;;1.33;;
17340;SDS011;8788;49.930;8.660;2022-09-01T14:48:22;1.67;;;1.27;;
17340;SDS011;8788;49.930;8.660;2022-09-01T14:50:51;1.27;;;1.17;;
17340;SDS011;8788;49.930;8.660;2022-09-01T14:53:18;1.30;;;1.20;;
17340;SDS011;8788;49.930;8.660;2022-09-01T14:55:46;1.35;;;0.82;;
17340;SDS011;8788;49.930;8.660;2022-09-01T14:58:13;0.95;;;0.85;;
17340;SDS011;8788;49.930;8.660;2022-09-01T15:00:41;1.20;;;1.10;;
17340;SDS011;8788;49.930;8.660;2022-09-01T15:03:09;1.13;;;1.00;;
17340;SDS011;8788;49.930;8.660;2022-09-01T15:05:36;1.30;;;1.00;;
17340;SDS011;8788;49.930;8.660;2022-09-01T15:08:06;1.63;;;1.08;;
17340;SDS011;8788;49.930;8.660;2022-09-01T15:10:34;1.50;;;1.15;;
17340;SDS011;8788;49.930;8.660;2022-09-01T15:13:01;2.00;;;1.35;;
17340;SDS011;8788;49.930;8.660;2022-09-01T15:15:29;1.00;;;0.95;;
17340;SDS011;8788;49.930;8.660;2022-09-01T15:17:57;1.20;;;1.10;;
17340;SDS011;8788;49.930;8.660;2022-09-01T15:20:26;1.00;;;0.90;;
17340;SDS011;8788;49.930;8.660;2022-09-01T15:23:15;3.65;;;1.10;;
17340;SDS011;8788;49.930;8.660;2022-09-01T15:25:43;1.05;;;0.93;;
17340;SDS011;8788;49.930;8.660;2022-09-01T15:28:10;0.95;;;0.95;;
17340;SDS011;8788;49.930;8.660;2022-09-01T15:30:38;1.02;;;0.90;;
17340;SDS011;8788;49.930;8.660;2022-09-01T15:33:06;1.38;;;1.20;;
17340;SDS011;8788;49.930;8.660;2022-09-01T15:35:34;1.25;;;1.15;;
17340;SDS011;8788;49.930;8.660;2022-09-01T15:38:01;1.50;;;0.98;;
17340;SDS011;8788;49.930;8.660;2022-09-01T15:40:30;1.27;;;1.17;;
17340;SDS011;8788;49.930;8.660;2022-09-01T15:42:58;4.63;;;1.20;;
17340;SDS011;8788;49.930;8.660;2022-09-01T15:45:26;1.35;;;0.85;;
17340;SDS011;8788;49.930;8.660;2022-09-01T15:47:54;1.23;;;1.10;;
17340;SDS011;8788;49.930;8.660;2022-09-01T15:50:22;1.08;;;1.00;;
17340;SDS011;8788;49.930;8.660;2022-09-01T15:52:51;1.60;;;1.10;;
17340;SDS011;8788;49.930;8.660;2022-09-01T15:55:22;1.65;;;1.13;;
17340;SDS011;8788;49.930;8.660;2022-09-01T15:57:52;0.85;;;0.80;;
17340;SDS011;8788;49.930;8.660;2022-09-01T16:00:20;0.93;;;0.93;;
17340;SDS011;8788;49.930;8.660;2022-09-01T16:02:48;1.38;;;1.25;;
17340;SDS011;8788;49.930;8.660;2022-09-01T16:05:15;1.67;;;1.20;;
17340;SDS011;8788;49.930;8.660;2022-09-01T16:07:43;0.90;;;0.90;;
17340;SDS011;8788;49.930;8.660;2022-09-01T16:10:10;0.95;;;0.95;;
17340;SDS011;8788;49.930;8.660;2022-09-01T16:12:38;1.50;;;1.40;;
17340;SDS011;8788;49.930;8.660;2022-09-01T16:15:10;1.02;;;0.93;;
17340;SDS011;8788;49.930;8.660;2022-09-01T16:17:46;1.75;;;0.95;;
17340;SDS011;8788;49.930;8.660;2022-09-01T16:20:38;0.82;;;0.80;;
17340;SDS011;8788;49.930;8.660;2022-09-01T16:23:14;0.95;;;0.88;;
17340;SDS011;8788;49.930;8.660;2022-09-01T16:25:43;0.95;;;0.95;;
17340;SDS011;8788;49.930;8.660;2022-09-01T16:28:14;3.10;;;1.05;;
17340;SDS011;8788;49.930;8.660;2022-09-01T16:31:21;1.48;;;0.80;;
17340;SDS011;8788;49.930;8.660;2022-09-01T16:33:51;1.40;;;1.30;;
17340;SDS011;8788;49.930;8.660;2022-09-01T16:36:28;1.90;;;1.08;;
17340;SDS011;8788;49.930;8.660;2022-09-01T16:39:05;2.83;;;1.10;;
17340;SDS011;8788;49.930;8.660;2022-09-01T16:41:40;0.90;;;0.90;;
17340;SDS011;8788;49.930;8.660;2022-09-01T16:44:30;1.52;;;1.13;;
17340;SDS011;8788;49.930;8.660;2022-09-01T16:47:11;0.95;;;0.90;;
17340;SDS011;8788;49.930;8.660;2022-09-01T16:49:51;1.05;;;1.00;;
17340;SDS011;8788;49.930;8.660;2022-09-01T16:52:28;0.98;;;0.93;;
17340;SDS011;8788;49.930;8.660;2022-09-01T16:55:09;2.03;;;1.00;;
17340;SDS011;8788;49.930;8.660;2022-09-01T16:57:48;2.78;;;0.80;;
17340;SDS011;8788;49.930;8.660;2022-09-01T17:00:24;1.10;;;1.10;;
17340;SDS011;8788;49.930;8.660;2022-09-01T17:03:02;0.98;;;0.90;;
17340;SDS011;8788;49.930;8.660;2022-09-01T17:05:38;1.15;;;1.05;;
17340;SDS011;8788;49.930;8.660;2022-09-01T17:08:12;3.03;;;1.20;;
17340;SDS011;8788;49.930;8.660;2022-09-01T17:10:45;1.55;;;1.35;;
17340;SDS011;8788;49.930;8.660;2022-09-01T17:13:20;1.80;;;1.70;;
17340;SDS011;8788;49.930;8.660;2022-09-01T17:15:56;4.55;;;2.15;;
17340;SDS011;8788;49.930;8.660;2022-09-01T17:18:36;1.70;;;1.60;;
17340;SDS011;8788;49.930;8.660;2022-09-01T17:21:09;1.70;;;1.50;;
17340;SDS011;8788;49.930;8.660;2022-09-01T17:23:40;1.10;;;1.00;;
17340;SDS011;8788;49.930;8.660;2022-09-01T17:26:17;1.35;;;1.23;;
17340;SDS011;8788;49.930;8.660;2022-09-01T17:28:50;1.00;;;1.00;;
17340;SDS011;8788;49.930;8.660;2022-09-01T17:34:16;2.13;;;1.02;;
17340;SDS011;8788;49.930;8.660;2022-09-01T17:36:55;1.05;;;0.93;;
17340;SDS011;8788;49.930;8.660;2022-09-01T17:39:32;0.70;;;0.68;;
17340;SDS011;8788;49.930;8.660;2022-09-01T17:42:11;0.75;;;0.75;;
17340;SDS011;8788;49.930;8.660;2022-09-01T17:44:49;1.02;;;0.98;;
17340;SDS011;8788;49.930;8.660;2022-09-01T17:47:22;1.08;;;0.77;;
17340;SDS011;8788;49.930;8.660;2022-09-01T17:49:59;0.85;;;0.70;;
17340;SDS011;8788;49.930;8.660;2022-09-01T17:52:38;3.60;;;1.05;;
17340;SDS011;8788;49.930;8.660;2022-09-01T17:55:15;0.95;;;0.93;;
17340;SDS011;8788;49.930;8.660;2022-09-01T17:57:50;1.10;;;0.90;;
17340;SDS011;8788;49.930;8.660;2022-09-01T18:00:24;0.90;;;0.90;;
17340;SDS011;8788;49.930;8.660;2022-09-01T18:02:59;1.35;;;1.13;;
17340;SDS011;8788;49.930;8.660;2022-09-01T18:05:41;1.10;;;1.10;;
17340;SDS011;8788;49.930;8.660;2022-09-01T18:08:14;0.95;;;0.85;;
17340;SDS011;8788;49.930;8.660;2022-09-01T18:10:49;1.00;;;0.90;;
17340;SDS011;8788;49.930;8.660;2022-09-01T18:13:22;0.98;;;0.90;;
17340;SDS011;8788;49.930;8.660;2022-09-01T18:15:55;1.10;;;1.00;;
17340;SDS011;8788;49.930;8.660;2022-09-01T18:18:27;1.00;;;1.00;;
17340;SDS011;8788;49.930;8.660;2022-09-01T18:21:03;4.47;;;1.40;;
17340;SDS011;8788;49.930;8.660;2022-09-01T18:23:34;2.67;;;1.00;;
17340;SDS011;8788;49.930;8.660;2022-09-01T18:26:07;1.85;;;1.02;;
17340;SDS011;8788;49.930;8.660;2022-09-01T18:28:39;0.90;;;0.90;;
17340;SDS011;8788;49.930;8.660;2022-09-01T18:31:09;4.47;;;2.03;;
17340;SDS011;8788;49.930;8.660;2022-09-01T18:33:44;11.57;;;4.97;;
17340;SDS011;8788;49.930;8.660;2022-09-01T18:36:25;8.65;;;4.05;;
17340;SDS011;8788;49.930;8.660;2022-09-01T18:39:00;4.22;;;2.92;;
17340;SDS011;8788;49.930;8.660;2022-09-01T18:41:35;5.30;;;1.48;;
17340;SDS011;8788;49.930;8.660;2022-09-01T18:44:16;3.05;;;1.00;;
17340;SDS011;8788;49.930;8.660;2022-09-01T18:46:52;3.72;;;1.23;;
17340;SDS011;8788;49.930;8.660;2022-09-01T18:49:27;5.28;;;1.58;;
17340;SDS011;8788;49.930;8.660;2022-09-01T18:52:05;1.35;;;1.25;;
17340;SDS011;8788;49.930;8.660;2022-09-01T18:54:45;2.53;;;1.13;;
17340;SDS011;8788;49.930;8.660;2022-09-01T18:57:19;1.13;;;1.02;;
17340;SDS011;8788;49.930;8.660;2022-09-01T18:59:56;1.55;;;1.25;;
17340;SDS011;8788;49.930;8.660;2022-09-01T19:02:45;3.17;;;1.27;;
17340;SDS011;8788;49.930;8.660;2022-09-01T19:05:23;11.95;;;1.80;;
17340;SDS011;8788;49.930;8.660;2022-09-01T19:07:59;8.32;;;2.00;;
17340;SDS011;8788;49.930;8.660;2022-09-01T19:10:33;5.30;;;1.45;;
17340;SDS011;8788;49.930;8.660;2022-09-01T19:13:09;3.05;;;1.17;;
17340;SDS011;8788;49.930;8.660;2022-09-01T19:15:45;7.22;;;1.58;;
17340;SDS011;8788;49.930;8.660;2022-09-01T19:18:18;1.70;;;1.30;;
17340;SDS011;8788;49.930;8.660;2022-09-01T19:20:53;6.00;;;1.13;;
17340;SDS011;8788;49.930;8.660;2022-09-01T19:23:24;1.27;;;1.17;;
17340;SDS011;8788;49.930;8.660;2022-09-01T19:26:01;7.05;;;1.60;;
17340;SDS011;8788;49.930;8.660;2022-09-01T19:28:32;10.20;;;1.73;;
17340;SDS011;8788;49.930;8.660;2022-09-01T19:31:09;3.50;;;1.10;;
17340;SDS011;8788;49.930;8.660;2022-09-01T19:33:44;1.27;;;1.17;;
17340;SDS011;8788;49.930;8.660;2022-09-01T19:36:15;4.10;;;1.13;;
17340;SDS011;8788;49.930;8.660;2022-09-01T19:38:46;1.88;;;1.15;;
17340;SDS011;8788;49.930;8.660;2022-09-01T19:41:16;1.58;;;1.17;;
17340;SDS011;8788;49.930;8.660;2022-09-01T19:43:47;1.20;;;1.05;;
17340;SDS011;8788;49.930;8.660;2022-09-01T19:46:23;1.48;;;1.38;;
17340;SDS011;8788;49.930;8.660;2022-09-01T19:48:57;2.65;;;1.10;;
17340;SDS011;8788;49.930;8.660;2022-09-01T19:51:32;1.20;;;1.10;;
17340;SDS011;8788;49.930;8.660;2022-09-01T19:54:07;1.77;;;1.20;;
17340;SDS011;8788;49.930;8.660;2022-09-01T19:56:39;2.47;;;1.20;;
17340;SDS011;8788;49.930;8.660;2022-09-01T19:59:14;2.92;;;1.15;;
17340;SDS011;8788;49.930;8.660;2022-09-01T20:01:48;2.25;;;1.30;;
17340;SDS011;8788;49.930;8.660;2022-09-01T20:04:23;1.80;;;1.00;;
17340;SDS011;8788;49.930;8.660;2022-09-01T20:07:00;1.33;;;1.20;;
17340;SDS011;8788;49.930;8.660;2022-09-01T20:09:36;1.00;;;1.00;;